Time;durP1;ratioP1;P1;durP2;ratioP2;P2;SDS_P1;SDS_P2;PMS_P1;PMS_P2;Temp;Humidity;BMP_temperature;BMP_pressure;BME280_temperature;BME280_humidity;BME280_pressure;Samples;Min_cycle;Max_cycle;Signal;HPM_P1;HPM_P2
2023/05/19 00:01:51;;;;;;;8.05;0.90;;;8.40;99.90;;;;;;5054958;28;20110;-75
2023/05/19 00:04:17;;;;;;;6.75;0.57;;;8.30;99.90;;;;;;5055429;28;20028;-75
2023/05/19 00:06:47;;;;;;;4.57;1.00;;;8.40;99.90;;;;;;5037623;28;20032;-75
2023/05/19 00:09:13;;;;;;;6.60;0.70;;;8.40;99.90;;;;;;5037618;28;20032;-75
2023/05/19 00:11:39;;;;;;;3.08;0.65;;;8.40;99.90;;;;;;5037562;28;20025;-75
2023/05/19 00:14:07;;;;;;;6.95;1.35;;;8.40;99.90;;;;;;5037639;28;20029;-75
2023/05/19 00:16:33;;;;;;;1.58;0.50;;;8.30;99.90;;;;;;5055093;28;20029;-75
2023/05/19 00:19:01;;;;;;;3.88;0.75;;;8.40;99.90;;;;;;5055075;28;20090;-75
2023/05/19 00:21:28;;;;;;;6.40;0.70;;;8.40;99.90;;;;;;5055210;28;20143;-75
2023/05/19 00:23:54;;;;;;;6.25;0.60;;;8.40;99.90;;;;;;5055133;28;20101;-75
2023/05/19 00:26:21;;;;;;;6.53;0.55;;;8.40;99.90;;;;;;5055116;28;20082;-75
2023/05/19 00:28:47;;;;;;;3.38;0.80;;;8.40;99.90;;;;;;5037538;28;20108;-74
2023/05/19 00:31:13;;;;;;;7.78;1.48;;;8.40;99.90;;;;;;5055135;28;20028;-75
2023/05/19 00:33:39;;;;;;;5.45;0.85;;;9.80;99.90;;;;;;5037225;28;20029;-75
2023/05/19 00:36:04;;;;;;;4.03;1.17;;;8.40;99.90;;;;;;5055079;28;20415;-75
2023/05/19 00:38:31;;;;;;;7.10;0.77;;;8.30;99.90;;;;;;5036867;28;20040;-75
2023/05/19 00:40:58;;;;;;;6.50;0.68;;;8.20;99.90;;;;;;5054859;28;20494;-75
2023/05/19 00:43:24;;;;;;;3.33;0.75;;;8.20;99.90;;;;;;5054848;28;20021;-75
2023/05/19 00:45:50;;;;;;;3.67;1.10;;;8.10;99.90;;;;;;5054655;28;20175;-75
2023/05/19 00:48:16;;;;;;;3.63;0.70;;;8.10;99.90;;;;;;5054760;28;20049;-75
2023/05/19 00:50:42;;;;;;;5.40;0.70;;;8.10;99.90;;;;;;5054648;28;20106;-75
2023/05/19 00:53:08;;;;;;;3.92;0.88;;;8.10;99.90;;;;;;5054372;28;20479;-75
2023/05/19 00:55:36;;;;;;;8.38;0.73;;;8.10;99.90;;;;;;5036690;28;20195;-75
2023/05/19 00:58:04;;;;;;;3.10;0.52;;;8.10;99.90;;;;;;5054344;28;20017;-75
2023/05/19 01:00:30;;;;;;;1.80;0.80;;;8.10;99.90;;;;;;5036524;28;20021;-75
2023/05/19 01:02:56;;;;;;;7.65;1.20;;;8.10;99.90;;;;;;5036564;28;20025;-75
2023/05/19 01:05:21;;;;;;;2.08;0.95;;;8.00;99.90;;;;;;5054278;28;20044;-73
2023/05/19 01:07:52;;;;;;;2.25;0.63;;;8.00;99.90;;;;;;5036369;28;20472;-75
2023/05/19 01:10:18;;;;;;;4.28;0.60;;;7.90;99.90;;;;;;5055016;28;20067;-75
2023/05/19 01:12:44;;;;;;;9.40;1.05;;;7.90;99.90;;;;;;5054029;28;20029;-75
2023/05/19 01:15:11;;;;;;;3.35;1.00;;;7.80;99.90;;;;;;5054070;28;20028;-75
2023/05/19 01:18:02;;;;;;;6.82;0.77;;;7.80;99.90;;;;;;5036109;28;20037;-74
2023/05/19 01:20:35;;;;;;;3.25;0.70;;;7.80;99.90;;;;;;5036088;28;20068;-75
2023/05/19 01:23:22;;;;;;;8.98;1.13;;;7.80;99.90;;;;;;5054241;28;20021;-75
2023/05/19 01:26:06;;;;;;;8.63;1.42;;;7.70;99.90;;;;;;5054436;28;20075;-75
2023/05/19 01:28:53;;;;;;;11.05;2.33;;;7.80;99.90;;;;;;5053956;28;20021;-75
2023/05/19 01:31:24;;;;;;;6.95;1.83;;;7.70;99.90;;;;;;5035984;28;20017;-75
2023/05/19 01:33:55;;;;;;;10.95;0.95;;;7.70;99.90;;;;;;5036004;28;20075;-75
2023/05/19 01:36:21;;;;;;;13.63;1.45;;;7.70;99.90;;;;;;5053775;28;20027;-75
2023/05/19 01:38:50;;;;;;;14.55;1.13;;;7.70;99.90;;;;;;5035795;28;20052;-74
2023/05/19 01:41:18;;;;;;;2.67;0.85;;;7.80;99.90;;;;;;5053741;28;20099;-74
2023/05/19 01:43:44;;;;;;;4.43;0.80;;;7.80;99.90;;;;;;5035817;28;20104;-74
2023/05/19 01:46:11;;;;;;;6.28;1.00;;;7.90;99.90;;;;;;5053876;28;20445;-74
2023/05/19 01:48:37;;;;;;;6.75;1.05;;;7.90;99.90;;;;;;5053544;28;20392;-75
2023/05/19 01:51:03;;;;;;;4.53;0.82;;;7.90;99.90;;;;;;5053886;28;20112;-75
2023/05/19 01:53:28;;;;;;;5.07;0.68;;;7.90;99.90;;;;;;5053765;28;20584;-75
2023/05/19 01:55:56;;;;;;;4.00;0.93;;;7.90;99.90;;;;;;5053584;28;20053;-75
2023/05/19 01:58:49;;;;;;;8.05;0.70;;;7.90;99.90;;;;;;5053286;28;20037;-75
2023/05/19 02:01:15;;;;;;;4.57;1.10;;;7.90;99.90;;;;;;5053376;28;20028;-75
2023/05/19 02:03:58;;;;;;;5.85;0.90;;;7.80;99.90;;;;;;5053707;28;20096;-75
2023/05/19 02:06:45;;;;;;;6.15;1.30;;;7.80;99.90;;;;;;5053529;28;20029;-75
2023/05/19 02:09:29;;;;;;;9.02;2.10;;;7.80;99.90;;;;;;5053405;28;20431;-74
2023/05/19 02:12:01;;;;;;;4.63;1.02;;;7.80;99.90;;;;;;5035471;28;20037;-74
2023/05/19 02:15:09;;;;;;;8.88;1.10;;;7.80;99.90;;;;;;5053461;28;20052;-75
2023/05/19 02:17:40;;;;;;;3.78;1.00;;;7.80;99.90;;;;;;5002885;28;20075;-75
2023/05/19 02:20:08;;;;;;;10.80;1.50;;;7.80;99.90;;;;;;5053278;28;20095;-75
2023/05/19 02:22:34;;;;;;;8.48;0.82;;;7.80;99.90;;;;;;5035414;28;20109;-75
2023/05/19 02:25:00;;;;;;;3.92;1.05;;;7.80;99.90;;;;;;5053749;28;20032;-75
2023/05/19 02:27:26;;;;;;;4.20;0.68;;;7.90;99.90;;;;;;5039483;28;20017;-75
2023/05/19 02:29:52;;;;;;;6.70;0.80;;;7.90;99.90;;;;;;5039322;28;20021;-75
2023/05/19 02:32:19;;;;;;;6.47;1.02;;;7.90;99.90;;;;;;5057186;28;20060;-75
2023/05/19 02:34:45;;;;;;;6.25;1.55;;;8.00;99.90;;;;;;5057419;28;20028;-75
2023/05/19 02:37:14;;;;;;;9.43;1.67;;;8.00;99.90;;;;;;5057041;28;20029;-75
2023/05/19 02:39:40;;;;;;;9.35;1.88;;;8.00;99.90;;;;;;5056907;28;20024;-75
2023/05/19 02:42:06;;;;;;;4.93;1.75;;;8.00;99.90;;;;;;5057043;28;20021;-75
2023/05/19 02:44:32;;;;;;;5.75;1.58;;;8.00;99.90;;;;;;5039109;28;20157;-75
2023/05/19 02:46:57;;;;;;;6.63;1.48;;;8.00;99.90;;;;;;5057107;28;20025;-75
2023/05/19 02:49:23;;;;;;;4.65;1.50;;;8.00;99.90;;;;;;5056896;28;20036;-75
2023/05/19 02:51:48;;;;;;;7.85;1.58;;;8.00;99.90;;;;;;5056781;28;20037;-75
2023/05/19 02:54:14;;;;;;;7.13;1.85;;;8.00;99.90;;;;;;5057460;28;20047;-75
2023/05/19 02:56:39;;;;;;;9.40;1.60;;;8.10;99.90;;;;;;5038928;28;20017;-75
2023/05/19 02:59:05;;;;;;;8.80;1.67;;;;;;;;;;5056704;28;20025;-75
2023/05/19 03:01:31;;;;;;;6.32;1.52;;;8.20;99.90;;;;;;5038846;28;20021;-75
2023/05/19 03:03:57;;;;;;;5.47;1.70;;;8.20;99.90;;;;;;5056733;28;20021;-75
2023/05/19 03:06:23;;;;;;;9.13;2.25;;;8.20;99.90;;;;;;5056662;28;20021;-75
2023/05/19 03:08:49;;;;;;;5.18;1.23;;;8.20;99.90;;;;;;5038472;28;20031;-75
2023/05/19 03:11:15;;;;;;;4.13;1.38;;;8.20;99.90;;;;;;5038528;28;20021;-74
2023/05/19 03:13:41;;;;;;;4.47;1.30;;;8.20;99.90;;;;;;5056473;28;20112;-75
2023/05/19 03:16:10;;;;;;;8.32;1.48;;;8.10;99.90;;;;;;5056534;28;20059;-75
2023/05/19 03:18:36;;;;;;;8.85;1.70;;;8.10;99.90;;;;;;5056077;28;20496;-75
2023/05/19 03:21:02;;;;;;;3.60;1.10;;;8.20;99.90;;;;;;5056534;28;20024;-75
2023/05/19 03:23:28;;;;;;;6.55;1.30;;;8.20;99.90;;;;;;5056354;28;20033;-75
2023/05/19 03:25:54;;;;;;;6.07;1.75;;;8.10;99.90;;;;;;5056459;28;20021;-75
2023/05/19 03:28:22;;;;;;;4.80;1.70;;;8.10;99.90;;;;;;5056020;28;20017;-75
2023/05/19 03:30:49;;;;;;;7.03;1.17;;;8.10;99.90;;;;;;5056686;28;20021;-75
2023/05/19 03:33:15;;;;;;;4.63;1.10;;;8.10;99.90;;;;;;5038185;28;20042;-75
2023/05/19 03:35:40;;;;;;;11.15;1.83;;;8.10;99.90;;;;;;5056065;28;20412;-75
2023/05/19 03:38:06;;;;;;;4.53;1.20;;;8.00;99.90;;;;;;5056359;28;20075;-75
2023/05/19 03:40:31;;;;;;;5.43;1.85;;;8.00;99.90;;;;;;5055766;28;20033;-75
2023/05/19 03:42:57;;;;;;;11.98;2.25;;;8.00;99.90;;;;;;5056599;28;20021;-75
2023/05/19 03:45:22;;;;;;;7.18;2.03;;;8.00;99.90;;;;;;5056430;28;20032;-75
2023/05/19 03:47:48;;;;;;;6.78;1.42;;;8.00;99.90;;;;;;5037776;28;20024;-74
2023/05/19 03:50:13;;;;;;;7.90;1.88;;;8.00;99.90;;;;;;5038157;28;20079;-74
2023/05/19 03:52:44;;;;;;;6.18;2.40;;;8.00;99.90;;;;;;5056271;28;20099;-74
2023/05/19 03:55:09;;;;;;;6.97;2.00;;;8.00;99.90;;;;;;5037828;28;20550;-74
2023/05/19 03:57:35;;;;;;;9.65;1.63;;;8.00;99.90;;;;;;5055621;28;20021;-75
2023/05/19 04:00:02;;;;;;;5.30;1.90;;;8.00;99.90;;;;;;5055353;28;20029;-75
2023/05/19 04:02:27;;;;;;;6.72;1.40;;;8.00;99.90;;;;;;5037571;28;20017;-75
2023/05/19 04:04:53;;;;;;;7.50;2.03;;;8.00;99.90;;;;;;5037774;28;20052;-75
2023/05/19 04:07:18;;;;;;;12.70;2.38;;;8.10;99.90;;;;;;5037665;28;20517;-75
2023/05/19 04:09:44;;;;;;;8.38;3.05;;;8.10;99.90;;;;;;5055340;28;20029;-75
2023/05/19 04:12:10;;;;;;;5.80;1.60;;;8.10;99.90;;;;;;5055881;28;20033;-75
2023/05/19 04:14:35;;;;;;;7.97;1.73;;;8.10;99.90;;;;;;5055996;28;20100;-75
2023/05/19 04:17:01;;;;;;;9.68;2.08;;;8.10;99.90;;;;;;5055935;28;20101;-75
2023/05/19 04:19:26;;;;;;;5.43;1.42;;;8.00;99.90;;;;;;5037759;28;20029;-74
2023/05/19 04:21:52;;;;;;;6.28;1.65;;;8.10;99.90;;;;;;5055716;28;20021;-75
2023/05/19 04:24:17;;;;;;;10.65;1.85;;;8.10;99.90;;;;;;5038057;28;20078;-75
2023/05/19 04:26:45;;;;;;;5.32;2.35;;;8.20;99.90;;;;;;5055098;28;20021;-75
2023/05/19 04:29:12;;;;;;;5.47;2.08;;;8.20;99.90;;;;;;5037582;28;20361;-75
2023/05/19 04:31:39;;;;;;;6.18;2.10;;;8.30;99.90;;;;;;5055219;28;20016;-75
2023/05/19 04:34:06;;;;;;;3.97;1.77;;;8.30;99.90;;;;;;5055683;28;20025;-75
2023/05/19 04:36:32;;;;;;;7.22;1.88;;;8.30;99.90;;;;;;5037743;28;20021;-75
2023/05/19 04:39:01;;;;;;;11.32;2.00;;;8.40;99.90;;;;;;5055227;28;20090;-75
2023/05/19 04:41:27;;;;;;;10.45;2.05;;;;;;;;;;5056038;28;20023;-75
2023/05/19 04:43:52;;;;;;;7.57;2.20;;;8.40;99.90;;;;;;5055839;28;20057;-75
2023/05/19 04:46:22;;;;;;;15.50;3.10;;;8.50;99.90;;;;;;5037666;28;20035;-75
2023/05/19 04:48:49;;;;;;;3.95;1.30;;;8.60;99.90;;;;;;5036922;28;20039;-75
2023/05/19 04:51:16;;;;;;;5.85;1.92;;;8.60;99.90;;;;;;5037562;28;20112;-75
2023/05/19 04:53:42;;;;;;;7.68;2.33;;;8.60;99.90;;;;;;5055385;28;20048;-75
2023/05/19 04:56:09;;;;;;;11.23;2.55;;;8.70;99.90;;;;;;5037089;28;20540;-75
2023/05/19 04:58:34;;;;;;;7.07;2.10;;;8.70;99.90;;;;;;5054370;28;20028;-75
2023/05/19 05:01:00;;;;;;;9.07;2.80;;;8.70;99.90;;;;;;5054895;28;20461;-75
2023/05/19 05:03:25;;;;;;;6.15;1.88;;;8.80;99.90;;;;;;5055962;28;20028;-75
2023/05/19 05:05:51;;;;;;;7.65;2.47;;;8.70;99.90;;;;;;5037963;28;20464;-75
2023/05/19 05:08:22;;;;;;;8.85;2.88;;;8.80;99.90;;;;;;5055198;28;20027;-74
2023/05/19 05:10:54;;;;;;;9.77;1.90;;;8.80;99.90;;;;;;5037307;28;20083;-75
2023/05/19 05:13:22;;;;;;;9.90;1.95;;;8.90;99.90;;;;;;5054930;28;20029;-75
2023/05/19 05:15:49;;;;;;;12.18;2.35;;;8.90;99.90;;;;;;5054934;28;20056;-75
2023/05/19 05:18:15;;;;;;;9.38;2.63;;;9.00;99.90;;;;;;5054782;28;20064;-75
2023/05/19 05:20:45;;;;;;;7.05;1.85;;;9.00;99.90;;;;;;5054708;28;20021;-75
2023/05/19 05:23:14;;;;;;;9.65;1.88;;;9.10;99.90;;;;;;5054463;28;20100;-75
2023/05/19 05:25:43;;;;;;;;;;;9.20;99.90;;;;;;5037589;28;20013;-75
2023/05/19 05:28:09;;;;;;;8.77;2.67;;;9.30;99.90;;;;;;5054323;28;19909;-75
2023/05/19 05:30:35;;;;;;;12.27;2.03;;;9.30;99.90;;;;;;5055215;28;20032;-75
2023/05/19 05:33:01;;;;;;;5.30;2.28;;;9.40;99.90;;;;;;5054224;28;20025;-75
2023/05/19 05:35:27;;;;;;;9.18;2.10;;;9.50;99.90;;;;;;5054097;28;20033;-75
2023/05/19 05:37:52;;;;;;;8.15;2.45;;;9.60;99.90;;;;;;5036633;28;20027;-75
2023/05/19 05:40:18;;;;;;;10.68;2.67;;;9.60;99.90;;;;;;5054442;28;20116;-75
2023/05/19 05:42:44;;;;;;;7.22;2.58;;;9.70;99.90;;;;;;5054467;28;20024;-75
2023/05/19 05:45:10;;;;;;;7.88;2.30;;;9.70;99.90;;;;;;5054250;28;20546;-78
2023/05/19 05:47:40;;;;;;;10.20;2.40;;;9.90;99.90;;;;;;5053905;28;20024;-76
2023/05/19 05:50:07;;;;;;;16.02;2.78;;;9.90;99.90;;;;;;5054214;28;20492;-76
2023/05/19 05:52:36;;;;;;;7.90;2.10;;;10.10;99.90;;;;;;5054274;28;20035;-75
2023/05/19 05:55:02;;;;;;;7.93;2.22;;;10.20;99.90;;;;;;5053670;28;20108;-75
2023/05/19 05:57:29;;;;;;;10.77;2.47;;;10.20;99.90;;;;;;5035986;28;20025;-74
2023/05/19 05:59:55;;;;;;;11.18;2.67;;;10.30;99.90;;;;;;5052741;28;20522;-75
2023/05/19 06:02:21;;;;;;;6.40;2.13;;;10.40;99.90;;;;;;5036015;28;20017;-75
2023/05/19 06:04:47;;;;;;;9.57;3.00;;;10.50;99.90;;;;;;5053697;28;20028;-75
2023/05/19 06:07:12;;;;;;;5.45;1.88;;;10.50;99.90;;;;;;5053708;28;20364;-75
2023/05/19 06:09:38;;;;;;;9.35;1.95;;;10.60;99.90;;;;;;5053166;28;20036;-75
2023/05/19 06:12:05;;;;;;;6.72;2.17;;;10.70;99.90;;;;;;5053183;28;20029;-75
2023/05/19 06:14:30;;;;;;;4.88;1.55;;;10.80;99.90;;;;;;5053325;28;20376;-75
2023/05/19 06:16:56;;;;;;;8.40;2.10;;;11.00;99.90;;;;;;5052267;28;20036;-75
2023/05/19 06:19:23;;;;;;;9.77;2.33;;;11.10;99.90;;;;;;5050967;28;20033;-75
2023/05/19 06:21:50;;;;;;;7.68;1.40;;;11.30;99.90;;;;;;5052810;28;20045;-75
2023/05/19 06:24:15;;;;;;;7.25;2.40;;;11.40;99.90;;;;;;5035208;28;20079;-76
2023/05/19 06:26:41;;;;;;;9.25;1.80;;;;;;;;;;5033869;28;20476;-76
2023/05/19 06:29:07;;;;;;;10.35;1.42;;;11.70;99.90;;;;;;5035307;28;20029;-76
2023/05/19 06:31:32;;;;;;;6.70;0.98;;;11.90;99.90;;;;;;5053153;28;20560;-76
2023/05/19 06:33:58;;;;;;;6.47;1.55;;;12.00;99.90;;;;;;5035331;28;20036;-75
2023/05/19 06:36:24;;;;;;;8.77;2.08;;;12.10;99.90;;;;;;5035262;28;20063;-76
2023/05/19 06:38:49;;;;;;;3.90;1.40;;;12.30;99.90;;;;;;5052697;28;20053;-75
2023/05/19 06:41:15;;;;;;;5.00;1.63;;;12.30;99.90;;;;;;5034879;28;20021;-76
2023/05/19 06:43:41;;;;;;;3.97;1.30;;;12.60;99.90;;;;;;5035029;28;20028;-76
2023/05/19 06:46:07;;;;;;;7.00;1.00;;;12.60;99.90;;;;;;5053382;28;20021;-76
2023/05/19 06:48:32;;;;;;;6.95;1.38;;;12.70;99.90;;;;;;5052627;28;20033;-76
2023/05/19 06:50:58;;;;;;;8.07;1.48;;;12.70;99.90;;;;;;5052676;28;20017;-76
2023/05/19 06:53:23;;;;;;;8.65;0.80;;;12.80;99.90;;;;;;5052717;28;20028;-76
2023/05/19 06:55:49;;;;;;;6.35;0.88;;;12.90;99.90;;;;;;5034766;28;20075;-76
2023/05/19 06:58:15;;;;;;;4.72;1.33;;;13.30;99.90;;;;;;5052673;28;20025;-76
2023/05/19 07:00:42;;;;;;;4.22;1.30;;;12.90;99.90;;;;;;5052532;28;20025;-75
2023/05/19 07:03:08;;;;;;;6.70;0.93;;;13.00;99.90;;;;;;5053324;28;20037;-75
2023/05/19 07:05:33;;;;;;;4.60;1.02;;;13.00;99.90;;;;;;5053057;28;20092;-75
2023/05/19 07:08:00;;;;;;;7.68;1.30;;;13.10;99.90;;;;;;5052845;28;20127;-74
2023/05/19 07:10:26;;;;;;;5.25;1.00;;;13.80;99.90;;;;;;5052535;28;20032;-74
2023/05/19 07:12:51;;;;;;;10.15;1.67;;;13.20;99.90;;;;;;5037908;28;20054;-74
2023/05/19 07:15:17;;;;;;;4.28;0.80;;;13.20;99.90;;;;;;5038225;28;20047;-76
2023/05/19 07:17:42;;;;;;;8.85;1.52;;;13.40;99.90;;;;;;5057301;28;20560;-78
2023/05/19 07:20:08;;;;;;;5.18;1.52;;;13.40;99.90;;;;;;5057463;28;20037;-78
2023/05/19 07:22:35;;;;;;;7.25;1.75;;;13.80;99.90;;;;;;5057748;28;20021;-78
2023/05/19 07:25:01;;;;;;;5.53;0.85;;;;;;;;;;5057150;28;20025;-78
2023/05/19 07:27:26;;;;;;;3.83;0.70;;;14.00;99.90;;;;;;5039642;28;20032;-78
2023/05/19 07:29:52;;;;;;;6.35;1.42;;;15.70;99.90;;;;;;5039067;28;20017;-78
2023/05/19 07:32:18;;;;;;;6.93;0.88;;;15.30;99.90;;;;;;5038439;28;20558;-76
2023/05/19 07:34:44;;;;;;;4.32;0.55;;;;;;;;;;5038003;28;20028;-76
2023/05/19 07:37:10;;;;;;;3.80;0.65;;;14.80;99.90;;;;;;5055790;28;20025;-76
2023/05/19 07:39:35;;;;;;;4.15;1.27;;;14.90;99.90;;;;;;5055701;28;20048;-76
2023/05/19 07:42:01;;;;;;;3.15;0.68;;;14.80;99.90;;;;;;5056126;28;20457;-76
2023/05/19 07:44:26;;;;;;;5.28;0.95;;;14.80;99.90;;;;;;5055625;28;20370;-76
2023/05/19 07:46:53;;;;;;;6.72;1.00;;;15.10;99.90;;;;;;5055604;28;20063;-76
2023/05/19 07:49:19;;;;;;;4.03;0.63;;;14.80;99.90;;;;;;5055602;28;20025;-76
2023/05/19 07:51:45;;;;;;;3.95;0.65;;;14.80;99.90;;;;;;5055574;28;20025;-76
2023/05/19 07:54:10;;;;;;;5.45;0.47;;;14.90;99.90;;;;;;5037701;28;20024;-76
2023/05/19 07:56:36;;;;;;;3.92;1.50;;;14.80;99.90;;;;;;5055532;28;20033;-75
2023/05/19 07:59:02;;;;;;;7.85;1.00;;;15.00;99.90;;;;;;5037340;28;20081;-76
2023/05/19 08:01:29;;;;;;;4.82;0.70;;;15.00;99.90;;;;;;5055307;28;20388;-76
2023/05/19 08:03:54;;;;;;;5.40;0.40;;;15.20;99.90;;;;;;5055284;28;20025;-76
2023/05/19 08:06:20;;;;;;;5.70;1.70;;;15.20;99.90;;;;;;5055255;28;20021;-76
2023/05/19 08:08:46;;;;;;;6.88;0.50;;;15.30;99.90;;;;;;5055244;28;20029;-76
2023/05/19 08:11:11;;;;;;;5.78;0.93;;;15.50;99.90;;;;;;5037318;28;20526;-76
2023/05/19 08:13:37;;;;;;;3.10;0.93;;;15.70;99.90;;;;;;5055209;28;20027;-76
2023/05/19 08:16:02;;;;;;;4.60;1.10;;;16.00;99.90;;;;;;5055011;28;20025;-76
2023/05/19 08:18:28;;;;;;;5.57;0.57;;;16.00;99.90;;;;;;5055070;28;20036;-75
2023/05/19 08:20:53;;;;;;;2.67;0.35;;;16.00;99.90;;;;;;5055034;28;20429;-76
2023/05/19 08:23:20;;;;;;;4.55;0.70;;;16.30;99.90;;;;;;5055180;28;20021;-76
2023/05/19 08:25:46;;;;;;;6.32;0.80;;;16.50;99.90;;;;;;5054867;28;20017;-76
2023/05/19 08:28:12;;;;;;;1.63;0.30;;;16.60;99.90;;;;;;5054964;28;20101;-74
2023/05/19 08:30:37;;;;;;;4.60;0.93;;;16.60;99.90;;;;;;5054802;28;20029;-76
2023/05/19 08:33:03;;;;;;;5.15;0.70;;;16.90;99.90;;;;;;5055367;28;20537;-76
2023/05/19 08:35:29;;;;;;;7.18;0.85;;;17.30;99.90;;;;;;5054636;28;20046;-76
2023/05/19 08:37:54;;;;;;;3.58;0.40;;;17.40;99.90;;;;;;5055299;28;20484;-76
2023/05/19 08:40:21;;;;;;;3.45;0.10;;;17.50;99.90;;;;;;5036742;28;20021;-76
2023/05/19 08:42:46;;;;;;;9.50;0.65;;;17.50;99.90;;;;;;5054755;28;20013;-74
2023/05/19 08:45:15;;;;;;;3.28;0.20;;;17.60;99.90;;;;;;5054562;28;20497;-76
2023/05/19 08:47:42;;;;;;;4.40;0.30;;;17.80;99.90;;;;;;5036633;28;20023;-76
2023/05/19 08:50:11;;;;;;;1.13;0.30;;;18.40;99.90;;;;;;5054721;28;20032;-77
2023/05/19 08:52:44;;;;;;;3.30;0.35;;;17.90;97.80;;;;;;5054558;28;20040;-76
2023/05/19 08:55:26;;;;;;;6.68;0.57;;;17.90;98.20;;;;;;5036477;28;20483;-76
2023/05/19 08:57:52;;;;;;;4.45;0.52;;;17.70;96.50;;;;;;5054522;28;20112;-76
2023/05/19 09:00:19;;;;;;;3.92;0.30;;;17.70;97.00;;;;;;5054856;28;20488;-76
2023/05/19 09:02:47;;;;;;;1.02;0.17;;;17.60;95.50;;;;;;5054418;28;20017;-76
2023/05/19 09:05:15;;;;;;;3.92;0.35;;;17.60;96.20;;;;;;5053926;28;20121;-76
2023/05/19 09:07:43;;;;;;;2.28;0.10;;;17.50;94.80;;;;;;5054249;28;20412;-76
2023/05/19 09:10:13;;;;;;;1.45;0.00;;;17.50;94.90;;;;;;5036447;28;20025;-76
2023/05/19 09:12:39;;;;;;;2.08;0.15;;;17.60;95.20;;;;;;5054212;28;20523;-76
2023/05/19 09:15:06;;;;;;;1.48;0.10;;;17.70;94.50;;;;;;5054150;28;20082;-77
2023/05/19 09:17:33;;;;;;;3.00;0.00;;;17.90;93.00;;;;;;5053821;28;20036;-77
2023/05/19 09:20:02;;;;;;;2.05;0.10;;;18.50;93.40;;;;;;5036071;28;20483;-76
2023/05/19 09:22:29;;;;;;;4.10;0.88;;;18.90;93.50;;;;;;5054543;28;20174;-76
2023/05/19 09:24:55;;;;;;;4.55;0.30;;;19.00;91.70;;;;;;5053929;28;20013;-76
2023/05/19 09:27:22;;;;;;;3.22;0.55;;;18.10;91.00;;;;;;5053853;28;20017;-76
2023/05/19 09:29:48;;;;;;;2.22;0.03;;;17.90;91.50;;;;;;5053817;28;20415;-76
2023/05/19 09:32:23;;;;;;;3.50;0.32;;;18.10;92.40;;;;;;5035913;28;20025;-76
2023/05/19 09:34:49;;;;;;;1.88;0.10;;;18.10;93.20;;;;;;5053606;28;20075;-76
2023/05/19 09:37:15;;;;;;;2.67;0.00;;;19.10;91.70;;;;;;5035793;28;20017;-76
2023/05/19 09:39:47;;;;;;;3.17;0.13;;;18.60;90.00;;;;;;5035657;28;20511;-76
2023/05/19 09:42:13;;;;;;;1.65;0.35;;;18.60;87.40;;;;;;5052919;28;20036;-76
2023/05/19 09:44:41;;;;;;;2.58;0.00;;;18.70;90.10;;;;;;5053411;28;20025;-76
2023/05/19 09:47:08;;;;;;;1.58;0.00;;;18.90;89.80;;;;;;5036509;28;20464;-76
2023/05/19 09:49:33;;;;;;;4.38;0.50;;;19.20;88.10;;;;;;5053694;28;20441;-76
2023/05/19 09:52:02;;;;;;;0.40;0.00;;;19.30;85.60;;;;;;5053522;28;20017;-76
2023/05/19 09:54:30;;;;;;;4.18;0.10;;;19.50;86.50;;;;;;5053467;28;20499;-76
2023/05/19 09:57:00;;;;;;;4.32;0.17;;;19.60;83.60;;;;;;5054012;28;20075;-76
2023/05/19 09:59:27;;;;;;;2.95;0.30;;;19.80;78.40;;;;;;5035449;28;20037;-76
2023/05/19 10:01:57;;;;;;;0.98;0.00;;;19.90;75.80;;;;;;5035574;28;20021;-76
2023/05/19 10:04:28;;;;;;;2.38;0.30;;;20.00;74.60;;;;;;5053499;28;20039;-76
2023/05/19 10:06:55;;;;;;;4.20;0.10;;;20.20;74.30;;;;;;5035380;28;20017;-76
2023/05/19 10:09:25;;;;;;;2.30;0.50;;;20.20;72.10;;;;;;5053133;28;20025;-76
2023/05/19 10:11:56;;;;;;;3.75;0.32;;;20.20;71.00;;;;;;5053255;28;20029;-76
2023/05/19 10:14:25;;;;;;;3.10;0.20;;;20.20;71.60;;;;;;5053695;28;20025;-76
2023/05/19 10:16:55;;;;;;;2.38;0.15;;;20.40;68.20;;;;;;5053043;28;20514;-76
2023/05/19 10:19:26;;;;;;;3.67;0.10;;;20.40;68.50;;;;;;5053078;28;20484;-76
2023/05/19 10:21:52;;;;;;;5.57;0.03;;;20.40;68.10;;;;;;5035315;28;20075;-76
2023/05/19 10:24:18;;;;;;;2.67;0.22;;;20.70;67.70;;;;;;5051776;28;20021;-76
2023/05/19 10:26:52;;;;;;;2.83;0.38;;;20.60;67.80;;;;;;5034993;28;20017;-76
2023/05/19 10:29:22;;;;;;;2.45;0.22;;;20.60;66.60;;;;;;5053053;28;20545;-76
2023/05/19 10:31:50;;;;;;;1.13;0.00;;;20.60;67.40;;;;;;5035103;28;20021;-76
2023/05/19 10:34:20;;;;;;;1.45;0.10;;;20.60;66.50;;;;;;5052964;28;20031;-76
2023/05/19 10:37:02;;;;;;;3.03;0.45;;;20.90;69.30;;;;;;5052959;28;20481;-76
2023/05/19 10:39:34;;;;;;;0.68;0.10;;;21.20;66.00;;;;;;5052750;28;20079;-76
2023/05/19 10:42:22;;;;;;;2.08;0.20;;;21.20;67.60;;;;;;5052673;28;20511;-76
2023/05/19 10:45:14;;;;;;;3.17;0.17;;;21.50;66.00;;;;;;5052802;28;20021;-76
2023/05/19 10:47:40;;;;;;;3.30;0.57;;;21.40;63.90;;;;;;5055791;28;20021;-76
2023/05/19 10:50:07;;;;;;;3.38;0.10;;;21.40;64.00;;;;;;5056530;28;20021;-76
2023/05/19 10:52:36;;;;;;;1.35;0.00;;;21.40;63.80;;;;;;5056712;28;20481;-76
2023/05/19 10:55:03;;;;;;;4.57;0.55;;;21.60;62.70;;;;;;5056659;28;20385;-76
2023/05/19 10:57:31;;;;;;;4.18;0.10;;;21.70;64.80;;;;;;5056411;28;20079;-76
2023/05/19 10:59:59;;;;;;;0.60;0.10;;;21.70;65.60;;;;;;5038331;28;20082;-76
2023/05/19 11:02:46;;;;;;;0.80;0.37;;;21.90;63.90;;;;;;5038344;28;20104;-76
2023/05/19 11:05:17;;;;;;;2.30;0.20;;;22.10;63.30;;;;;;5056426;28;20013;-76
2023/05/19 11:08:05;;;;;;;9.95;0.60;;;22.30;60.80;;;;;;5056256;28;20048;-76
2023/05/19 11:10:31;;;;;;;3.08;0.20;;;22.30;61.00;;;;;;5056283;28;20025;-76
2023/05/19 11:12:57;;;;;;;2.03;0.10;;;22.20;60.60;;;;;;5038399;28;20029;-76
2023/05/19 11:15:26;;;;;;;3.67;0.17;;;22.20;63.00;;;;;;5056034;28;20029;-76
2023/05/19 11:17:53;;;;;;;1.95;0.00;;;22.30;62.00;;;;;;5055770;28;20044;-76
2023/05/19 11:20:23;;;;;;;3.67;0.30;;;22.50;61.40;;;;;;5056116;28;20063;-76
2023/05/19 11:23:13;;;;;;;2.72;0.40;;;22.90;58.40;;;;;;5038315;28;20036;-76
2023/05/19 11:25:42;;;;;;;5.35;0.52;;;22.80;59.70;;;;;;5056096;28;20024;-76
2023/05/19 11:28:10;;;;;;;1.77;0.20;;;22.90;59.70;;;;;;5055705;28;20031;-76
2023/05/19 11:30:36;;;;;;;2.40;0.00;;;22.90;59.40;;;;;;5038024;28;20117;-76
2023/05/19 11:33:02;;;;;;;1.17;0.28;;;23.10;56.60;;;;;;5055820;28;20057;-76
2023/05/19 11:35:29;;;;;;;3.03;0.10;;;23.10;60.00;;;;;;5037985;28;20024;-76
2023/05/19 11:37:56;;;;;;;2.75;0.40;;;23.10;57.60;;;;;;5037832;28;20024;-76
2023/05/19 11:40:22;;;;;;;1.30;0.03;;;23.10;58.90;;;;;;5055435;28;20021;-76
2023/05/19 11:42:48;;;;;;;5.30;0.80;;;22.80;57.80;;;;;;5037779;28;20017;-76
2023/05/19 11:45:13;;;;;;;2.28;0.20;;;22.80;59.10;;;;;;5055569;28;20035;-76
2023/05/19 11:47:39;;;;;;;1.75;0.10;;;22.80;61.10;;;;;;5055509;28;20498;-76
2023/05/19 11:50:05;;;;;;;3.25;0.20;;;22.80;60.90;;;;;;5037573;28;20496;-76
2023/05/19 11:52:31;;;;;;;4.07;0.38;;;23.40;57.90;;;;;;5055551;28;20036;-76
2023/05/19 11:55:03;;;;;;;3.88;0.17;;;23.40;58.30;;;;;;5055581;28;20025;-76
2023/05/19 11:57:28;;;;;;;5.95;0.20;;;23.60;57.20;;;;;;5054619;28;20035;-75
2023/05/19 11:59:55;;;;;;;3.40;0.10;;;23.90;58.40;;;;;;5054986;28;20477;-76
2023/05/19 12:02:23;;;;;;;3.40;0.05;;;23.60;54.60;;;;;;5056506;28;20021;-78
2023/05/19 12:04:49;;;;;;;1.00;0.15;;;23.50;56.30;;;;;;5056380;28;20115;-78
2023/05/19 12:07:17;;;;;;;3.67;0.20;;;23.50;58.40;;;;;;5038908;28;20016;-78
2023/05/19 12:09:44;;;;;;;2.90;0.38;;;23.80;55.30;;;;;;5056424;28;20032;-78
2023/05/19 12:12:15;;;;;;;2.40;0.03;;;23.70;54.80;;;;;;5055952;28;20506;-78
2023/05/19 12:14:45;;;;;;;1.85;0.30;;;23.70;57.10;;;;;;5038295;28;20025;-78
2023/05/19 12:17:15;;;;;;;3.92;0.40;;;23.80;56.80;;;;;;5055428;28;20037;-78
2023/05/19 12:19:43;;;;;;;2.55;0.00;;;23.60;55.20;;;;;;5037194;28;20544;-78
2023/05/19 12:22:09;;;;;;;4.22;0.08;;;23.10;54.60;;;;;;5038226;28;20480;-78
2023/05/19 12:24:36;;;;;;;1.67;0.20;;;23.10;54.80;;;;;;5038265;28;20021;-78
2023/05/19 12:27:11;;;;;;;2.88;0.52;;;23.30;56.00;;;;;;5038173;28;20108;-78
2023/05/19 12:29:38;;;;;;;0.52;0.08;;;23.40;56.90;;;;;;5038016;28;20025;-78
2023/05/19 12:32:04;;;;;;;1.23;0.17;;;23.80;53.70;;;;;;5038124;28;20156;-78
2023/05/19 12:34:30;;;;;;;2.15;0.15;;;23.90;54.30;;;;;;5055551;28;20033;-78
2023/05/19 12:36:56;;;;;;;4.40;0.52;;;24.20;54.30;;;;;;5055898;28;20029;-78
2023/05/19 12:39:23;;;;;;;2.42;0.00;;;24.50;53.10;;;;;;5055302;28;20497;-78
2023/05/19 12:41:49;;;;;;;1.25;0.00;;;24.50;53.40;;;;;;5037812;28;20079;-78
2023/05/19 12:44:15;;;;;;;1.35;0.10;;;24.60;51.90;;;;;;5037820;28;20126;-78
2023/05/19 12:46:41;;;;;;;2.80;0.20;;;24.90;52.90;;;;;;5055483;28;20534;-78
2023/05/19 12:49:06;;;;;;;5.60;0.47;;;25.10;52.00;;;;;;5037165;28;20143;-76
2023/05/19 12:51:32;;;;;;;2.35;0.15;;;25.30;47.80;;;;;;5054458;28;20025;-76
2023/05/19 12:54:01;;;;;;;1.80;0.30;;;25.40;50.50;;;;;;5054407;28;20036;-76
2023/05/19 12:56:27;;;;;;;3.58;0.10;;;25.40;51.90;;;;;;5054416;28;20021;-76